createdAt,value
2023-02-27T00:01:35.298Z,15261.66
2023-02-27T00:05:37.999Z,15222.81
2023-02-27T00:09:39.687Z,15251.44
2023-02-27T00:13:41.043Z,15224.88
2023-02-27T00:17:42.773Z,15231.00
2023-02-27T00:21:45.462Z,15224.88
2023-02-27T00:25:48.165Z,15239.19
2023-02-27T00:29:49.545Z,15231.00
2023-02-27T00:33:50.892Z,15224.88
2023-02-27T00:37:53.784Z,15220.78
2023-02-27T00:41:55.114Z,15204.44
2023-02-27T00:45:56.469Z,15177.84
2023-02-27T00:49:58.011Z,15231.00
2023-02-27T00:54:00.724Z,15183.97
2023-02-27T00:58:02.314Z,15210.56
2023-02-27T01:02:03.744Z,15202.38
2023-02-27T01:06:05.742Z,15210.56
2023-02-27T01:10:11.149Z,15204.44
2023-02-27T01:14:12.553Z,15190.13
2023-02-27T01:18:13.958Z,15183.97
2023-02-27T01:22:15.309Z,15224.88
2023-02-27T01:26:18.070Z,15196.25
2023-02-27T01:30:19.604Z,15192.16
2023-02-27T01:34:20.991Z,15212.59
2023-02-27T01:38:22.363Z,15183.97
2023-02-27T01:42:27.365Z,15206.47
2023-02-27T01:46:30.078Z,15190.13
2023-02-27T01:50:32.043Z,15188.06
2023-02-27T01:54:36.464Z,15163.53
2023-02-27T01:58:39.567Z,15165.59
2023-02-27T02:02:59.504Z,15179.91
2023-02-27T02:07:03.779Z,15177.84
2023-02-27T02:11:06.819Z,15151.28
2023-02-27T02:15:10.756Z,15151.28
2023-02-27T02:19:43.251Z,15143.09
2023-02-27T02:24:14.229Z,15159.44
2023-02-27T02:28:43.339Z,15149.22
2023-02-27T02:33:14.161Z,15149.22
2023-02-27T02:37:42.725Z,15188.06
2023-02-27T02:41:58.142Z,15141.06
2023-02-27T02:46:04.484Z,15132.88
2023-02-27T02:50:12.451Z,15108.34
2023-02-27T02:54:18.290Z,15130.84
2023-02-27T02:58:26.217Z,15118.56
2023-02-27T03:02:32.967Z,15128.78
2023-02-27T03:06:37.917Z,15143.09
2023-02-27T03:10:44.280Z,15122.66
2023-02-27T03:14:51.531Z,15116.53
2023-02-27T03:19:10.348Z,15114.47
2023-02-27T03:23:16.483Z,15116.53
2023-02-27T03:27:19.927Z,15108.34
2023-02-27T03:31:30.156Z,15126.75
2023-02-27T03:35:41.667Z,15114.47
2023-02-27T03:39:47.046Z,15089.94
2023-02-27T03:43:58.308Z,15110.38
2023-02-27T03:48:01.873Z,15100.16
2023-02-27T03:52:03.321Z,15104.25
2023-02-27T03:56:08.741Z,15087.91
2023-02-27T04:00:14.089Z,15057.25
2023-02-27T04:04:18.231Z,15085.84
2023-02-27T04:08:40.865Z,15118.56
2023-02-27T04:13:13.038Z,15110.38
2023-02-27T04:17:22.812Z,15087.91
2023-02-27T04:21:32.635Z,15079.72
2023-02-27T04:25:46.015Z,15151.28
2023-02-27T04:29:54.423Z,15108.34
2023-02-27T04:34:01.443Z,15085.84
2023-02-27T04:38:11.229Z,15061.31
2023-02-27T04:42:17.174Z,15053.16
2023-02-27T04:46:23.710Z,15069.50
2023-02-27T04:50:29.978Z,15065.41
2023-02-27T04:54:39.064Z,15061.31
2023-02-27T04:58:45.374Z,15053.16
2023-02-27T05:02:51.760Z,15053.16
2023-02-27T05:06:55.365Z,15053.16
2023-02-27T05:11:05.846Z,15065.41
2023-02-27T05:15:13.694Z,15065.41
2023-02-27T05:19:15.405Z,15057.25
2023-02-27T05:23:25.174Z,15032.72
2023-02-27T05:27:37.118Z,15053.16
2023-02-27T05:31:46.451Z,15040.88
2023-02-27T05:35:52.808Z,15014.31
2023-02-27T05:39:54.845Z,15036.81
2023-02-27T05:44:02.204Z,15028.63
2023-02-27T05:48:08.837Z,15073.59
2023-02-27T05:52:16.084Z,15022.50
2023-02-27T05:56:21.087Z,15016.34
2023-02-27T06:00:31.415Z,15028.63
2023-02-27T06:04:32.864Z,15016.34
2023-02-27T06:08:35.057Z,15024.53
2023-02-27T06:12:36.554Z,15012.28
2023-02-27T06:16:39.529Z,15014.31
2023-02-27T06:20:42.213Z,15028.63
2023-02-27T06:24:43.608Z,15012.28
2023-02-27T06:28:45.254Z,15022.50
2023-02-27T06:32:48.019Z,15022.50
2023-02-27T06:36:49.398Z,14981.59
2023-02-27T06:40:50.941Z,14991.81
2023-02-27T06:44:52.570Z,15002.03
2023-02-27T06:48:55.284Z,14995.91
2023-02-27T06:52:56.668Z,15012.28
2023-02-27T06:56:58.055Z,14981.59
2023-02-27T07:00:59.890Z,15016.34
2023-02-27T07:05:05.235Z,14989.78
2023-02-27T07:09:09.730Z,15010.22
2023-02-27T07:13:13.720Z,14977.53
2023-02-27T07:17:17.288Z,15004.09
2023-02-27T07:21:20.017Z,15000.00
2023-02-27T07:25:22.512Z,15032.72
2023-02-27T07:29:23.892Z,15018.41
2023-02-27T07:33:25.395Z,14975.47
2023-02-27T07:37:28.327Z,14995.91
2023-02-27T07:41:31.117Z,14993.88
2023-02-27T07:45:32.669Z,14983.66
2023-02-27T07:49:34.042Z,15102.22
2023-02-27T07:53:36.770Z,15171.72
2023-02-27T07:57:38.688Z,15265.75
2023-02-27T08:01:40.105Z,15372.06
2023-02-27T08:05:41.526Z,15233.03
2023-02-27T08:09:44.290Z,15171.72
2023-02-27T08:13:59.977Z,15106.31
2023-02-27T08:18:02.212Z,15118.56
2023-02-27T08:22:03.660Z,15104.25
2023-02-27T08:26:06.582Z,15106.31
2023-02-27T08:30:10.454Z,15073.59
2023-02-27T08:34:12.245Z,15089.94
2023-02-27T08:38:13.619Z,15061.31
2023-02-27T08:42:16.561Z,15063.38
2023-02-27T08:46:17.991Z,15069.50
2023-02-27T08:50:19.711Z,15096.09
2023-02-27T08:54:21.094Z,15069.50
2023-02-27T08:58:23.890Z,15106.31
2023-02-27T09:02:25.303Z,15081.78
2023-02-27T09:06:28.171Z,15071.56
2023-02-27T09:10:29.884Z,15071.56
2023-02-27T09:14:32.821Z,15073.59
2023-02-27T09:18:34.163Z,15089.94
2023-02-27T09:22:35.558Z,15089.94
2023-02-27T09:26:45.666Z,15073.59
2023-02-27T09:30:49.767Z,15104.25
2023-02-27T09:34:51.516Z,15081.78
2023-02-27T09:38:53.189Z,15065.41
2023-02-27T09:43:12.697Z,15071.56
2023-02-27T09:47:21.017Z,15089.94
2023-02-27T09:51:23.374Z,15089.94
2023-02-27T09:55:31.861Z,15079.72
2023-02-27T09:59:36.940Z,15104.25
2023-02-27T10:03:58.938Z,15139.00
2023-02-27T10:08:09.605Z,15134.91
2023-02-27T10:12:27.056Z,15118.56
2023-02-27T10:16:32.026Z,15167.63
2023-02-27T10:20:38.268Z,15139.00
2023-02-27T10:24:45.072Z,15218.75
2023-02-27T10:28:47.191Z,15280.06
2023-02-27T10:32:52.698Z,15343.44
2023-02-27T10:36:56.416Z,15433.41
2023-02-27T10:41:00.111Z,15601.03
2023-02-27T10:45:01.603Z,15646.03
2023-02-27T10:49:13.961Z,15723.72
2023-02-27T10:53:22.258Z,15750.28
2023-02-27T10:57:28.197Z,15852.53
2023-02-27T11:01:42.325Z,15850.47
2023-02-27T11:05:54.318Z,15897.50
2023-02-27T11:10:03.009Z,16001.78
2023-02-27T11:14:23.190Z,15967.03
2023-02-27T11:18:27.761Z,15928.16
2023-02-27T11:22:31.024Z,16059.03
2023-02-27T11:26:35.488Z,16173.53
2023-02-27T11:30:36.883Z,16204.22
2023-02-27T11:34:40.662Z,16238.97
2023-02-27T11:38:49.878Z,16275.78
2023-02-27T11:42:55.924Z,16243.06
2023-02-27T11:47:11.647Z,16265.56
2023-02-27T11:51:35.029Z,16308.50
2023-02-27T11:55:37.293Z,16277.81
2023-02-27T11:59:44.643Z,16337.13
2023-02-27T12:03:52.422Z,16353.47
2023-02-27T12:07:58.810Z,16300.31
2023-02-27T12:12:02.608Z,16380.06
2023-02-27T12:16:15.701Z,16404.59
2023-02-27T12:20:32.278Z,16402.56
2023-02-27T12:24:39.110Z,16322.81
2023-02-27T12:28:50.907Z,16202.16
2023-02-27T12:33:02.282Z,16245.09
2023-02-27T12:37:09.404Z,16249.19
2023-02-27T12:41:32.282Z,16316.69
2023-02-27T12:46:19.368Z,16236.94
2023-02-27T12:50:25.526Z,16222.63
2023-02-27T12:54:38.810Z,16173.53
2023-02-27T12:58:50.227Z,16177.63
2023-02-27T13:03:08.571Z,16202.16
2023-02-27T13:07:21.316Z,16226.69
2023-02-27T13:11:38.279Z,16204.22
2023-02-27T13:15:44.395Z,16249.19
2023-02-27T13:19:52.708Z,16185.81
2023-02-27T13:24:12.092Z,16210.34
2023-02-27T13:28:18.685Z,16130.59
2023-02-27T13:32:42.634Z,16187.84
2023-02-27T13:36:48.631Z,16212.38
2023-02-27T13:40:51.330Z,16136.72
2023-02-27T13:44:53.467Z,16181.72
2023-02-27T13:48:55.024Z,16104.00
2023-02-27T13:52:56.400Z,16165.34
2023-02-27T13:57:24.621Z,16134.69
2023-02-27T14:01:28.377Z,16124.47
2023-02-27T14:05:33.125Z,16089.69
2023-02-27T14:09:38.116Z,16114.25
2023-02-27T14:14:04.031Z,16106.06
2023-02-27T14:18:17.908Z,16116.28
2023-02-27T14:22:34.186Z,16063.13
2023-02-27T14:26:38.568Z,16042.69
2023-02-27T14:30:45.326Z,15981.34
2023-02-27T14:34:47.600Z,16016.09
2023-02-27T14:38:50.263Z,15954.75
2023-02-27T14:43:02.070Z,15960.88
2023-02-27T14:47:05.391Z,15936.34
2023-02-27T14:51:06.901Z,15948.63
2023-02-27T14:55:21.569Z,15973.16
2023-02-27T14:59:24.336Z,15924.09
2023-02-27T15:03:32.520Z,15924.09
2023-02-27T15:07:35.216Z,15932.25
2023-02-27T15:11:42.012Z,15854.56
2023-02-27T15:15:43.483Z,15872.97
2023-02-27T15:19:48.802Z,15879.09
2023-02-27T15:23:57.397Z,15875.00
2023-02-27T15:28:02.486Z,15846.38
2023-02-27T15:32:05.126Z,15842.28
2023-02-27T15:36:08.430Z,15836.16
2023-02-27T15:40:16.184Z,15823.91
2023-02-27T15:44:20.382Z,15807.53
2023-02-27T15:48:22.289Z,15823.91
2023-02-27T15:52:26.347Z,15834.13
2023-02-27T15:56:33.956Z,15785.03
2023-02-27T16:00:35.412Z,15809.59
2023-02-27T16:04:36.818Z,15823.91
2023-02-27T16:08:45.502Z,15825.94
2023-02-27T16:12:47.196Z,15823.91
2023-02-27T16:16:55.150Z,15797.31
2023-02-27T16:21:08.686Z,15801.41
2023-02-27T16:25:18.987Z,15770.72
2023-02-27T16:29:23.029Z,15789.13
2023-02-27T16:33:27.502Z,15772.78
2023-02-27T16:37:35.259Z,15801.41
2023-02-27T16:41:38.114Z,15731.88
2023-02-27T16:45:49.988Z,15756.41
2023-02-27T16:49:51.495Z,15789.13
2023-02-27T16:53:54.864Z,15805.50
2023-02-27T16:57:57.813Z,15776.88
2023-02-27T17:02:01.124Z,15785.03
2023-02-27T17:06:02.585Z,15787.09
2023-02-27T17:10:04.485Z,15772.78
2023-02-27T17:14:07.211Z,15815.72
2023-02-27T17:18:09.547Z,15799.34
2023-02-27T17:22:11.631Z,15789.13
2023-02-27T17:26:13.643Z,15789.13
2023-02-27T17:30:16.608Z,15760.50
2023-02-27T17:34:18.119Z,15768.69
2023-02-27T17:38:19.635Z,15768.69
2023-02-27T17:42:22.068Z,15780.97
2023-02-27T17:46:27.297Z,15772.78
2023-02-27T17:50:29.028Z,15750.28
2023-02-27T17:54:30.506Z,15735.97
2023-02-27T17:58:32.832Z,15801.41
2023-02-27T18:02:35.730Z,15742.09
2023-02-27T18:06:37.285Z,15740.06
2023-02-27T18:10:38.705Z,15752.34
2023-02-27T18:14:40.151Z,15750.28
2023-02-27T18:18:43.566Z,15744.16
2023-02-27T18:22:45.065Z,15750.28
2023-02-27T18:26:46.451Z,15744.16
2023-02-27T18:30:47.925Z,15731.88
2023-02-27T18:34:50.744Z,15727.81
2023-02-27T18:38:52.209Z,15738.03
2023-02-27T18:42:53.663Z,15701.22
2023-02-27T18:46:55.400Z,15744.16
2023-02-27T18:51:00.856Z,15719.63
2023-02-27T18:55:02.456Z,15707.34
2023-02-27T18:59:04.018Z,15695.09
2023-02-27T19:03:05.632Z,15703.25
2023-02-27T19:07:08.510Z,15682.81
2023-02-27T19:11:09.931Z,15662.38
2023-02-27T19:15:11.537Z,15664.41
2023-02-27T19:19:12.947Z,15684.88
2023-02-27T19:23:15.645Z,15688.94
2023-02-27T19:27:16.982Z,15678.72
2023-02-27T19:31:18.371Z,15664.41
2023-02-27T19:35:20.541Z,15695.09
2023-02-27T19:44:20.033Z,15646.03
2023-02-27T19:48:21.484Z,15658.28
2023-02-27T19:52:22.868Z,15650.09
2023-02-27T19:56:27.082Z,15686.91
2023-02-27T20:00:30.143Z,15691.00
2023-02-27T20:04:32.179Z,15672.59
2023-02-27T20:08:33.874Z,15670.56
2023-02-27T20:12:35.296Z,15674.63
2023-02-27T20:16:38.087Z,15633.75
2023-02-27T20:20:39.544Z,15631.72
2023-02-27T20:24:41.337Z,15646.03
2023-02-27T20:28:42.946Z,15633.75
2023-02-27T20:32:46.993Z,15605.13
2023-02-27T20:36:49.447Z,15629.66
2023-02-27T20:40:56.817Z,15596.94
2023-02-27T20:44:58.188Z,15607.16
2023-02-27T20:49:02.533Z,15607.16
2023-02-27T20:53:03.909Z,15621.47
2023-02-27T20:57:05.333Z,15584.69
2023-02-27T21:01:08.904Z,15596.94
2023-02-27T21:05:11.967Z,15572.41
2023-02-27T21:09:13.439Z,15605.13
2023-02-27T21:13:14.796Z,15588.78
2023-02-27T21:17:16.440Z,15568.31
2023-02-27T21:21:23.609Z,15592.84
2023-02-27T21:25:25.536Z,15582.63
2023-02-27T21:29:26.924Z,15609.22
2023-02-27T21:33:28.297Z,15574.47
2023-02-27T21:37:31.023Z,15584.69
2023-02-27T21:41:33.014Z,15592.84
2023-02-27T21:45:36.933Z,15609.22
2023-02-27T21:49:38.383Z,15633.75
2023-02-27T21:53:41.071Z,15627.63
2023-02-27T21:57:42.498Z,15596.94
2023-02-27T22:01:43.986Z,15609.22
2023-02-27T22:05:45.359Z,15609.22
2023-02-27T22:09:48.147Z,15664.41
2023-02-27T22:13:49.536Z,15605.13
2023-02-27T22:17:50.905Z,15623.53
2023-02-27T22:21:52.426Z,15586.72
2023-02-27T22:26:00.773Z,15613.31
2023-02-27T22:30:02.148Z,15599.00
2023-02-27T22:34:05.771Z,15588.78
2023-02-27T22:38:07.246Z,15590.81
2023-02-27T22:42:10.007Z,15570.38
2023-02-27T22:46:13.942Z,15580.59
2023-02-27T22:50:15.349Z,15596.94
2023-02-27T22:54:18.368Z,15596.94
2023-02-27T22:58:21.479Z,15588.78
2023-02-27T23:02:22.925Z,15586.72
2023-02-27T23:06:26.923Z,15592.84
2023-02-27T23:10:28.274Z,15556.06
2023-02-27T23:14:31.021Z,15599.00
2023-02-27T23:18:32.383Z,15566.28
2023-02-27T23:22:33.791Z,15580.59
2023-02-27T23:26:35.871Z,15541.75
2023-02-27T23:30:38.589Z,15574.47
2023-02-27T23:34:49.139Z,15576.50
2023-02-27T23:38:51.126Z,15568.31
2023-02-27T23:42:53.587Z,15619.44
2023-02-27T23:46:56.280Z,15551.97
2023-02-27T23:50:57.830Z,15570.38
2023-02-27T23:54:59.183Z,15568.31
2023-02-27T23:59:03.089Z,15576.50
